메인 페이지
METAR-TAF:

METAR-TAF

공항 :

Fort Sill, 오클라호마, 미국

위도: 34-36N, 경도: 098-24W, 고도: 362m

현재 날씨관측

예보는 31분 전, 12:56시(UTC)에 발표되었습니다.
남남동8kt
온도 26°C
습도 84%
기압 1015 hPa
시정: 16.1km
고도 19000ft 상공 구름 많음

METAR: KFSI 101256Z AUTO 15008KT 10SM BKN190 26/23 A2997 RMK AO2 SLP138 T02590233 $

시각: 08:27 (13:27 UTC)

예보

예보는 27분 전, 13:00시(UTC)에 발표되었습니다.
예보 대상 시간: 10일 13시부터 11일 19시까지 (UTC)
여러 방향의 바람 6kt
시정 10km 이상
맑음
전환 중
10일 15시부터 10일 16시까지 (UTC)
남남서10kt, 순간 최대 풍속 15kt
시정 10km 이상
고도 11000ft 상공 구름 조금
전환 중
11일 00시부터 11일 01시까지 (UTC)
여러 방향의 바람 6kt
시정 10km 이상
맑음
전환 중
11일 14시부터 11일 15시까지 (UTC)
남서12kt, 순간 최대 풍속 18kt
시정 10km 이상
고도 5000ft 상공 구름 조금

TAF: KFSI 101300Z 1013/1119 VRB06KT 9999 SKC QNH2991INS BECMG 1015/1016 20010G15KT 9999 FEW110 QNH2987INS BECMG 1100/1101 VRB06KT 9999 SKC QNH2986INS BECMG 1114/1115 22012G18KT 9999 FEW050 QNH2988INS TX39/1021Z TN25/1013Z

4,000개 이상의 공항 관측 자료 및 예보 (METAR 및 TAF 보고).

지도상에서 검색 가능한 기상관측소가 노란 점과 빨간 점으로 표시되어 있습니다.

기상관측소 명을 보려면 표시 위로 마우스를 이동하세요.

날씨 관측과 예보를 보려면 클릭하세요.

지도 변경 : 확대하려면 엑스 표시가 있는 녹색 버튼, 축소하려면 빼기 표시가 있는 녹색 버튼, 다음 페이지의 지도를 보려면 녹색 화살표를 클릭하세요.


METAR-TAF: